Time;durP1;ratioP1;P1;durP2;ratioP2;P2;SDS_P1;SDS_P2;PMS_P1;PMS_P2;Temp;Humidity;BMP_temperature;BMP_pressure;BME280_temperature;BME280_humidity;BME280_pressure;Samples;Min_cycle;Max_cycle;Signal;HPM_P1;HPM_P2
2021/01/23 00:02:10;;;;;;;34.95;4.07;;;;;;;;;;5048013;28;20075;-70
2021/01/23 00:04:37;;;;;;;34.72;4.03;;;;;;;;;;5044790;28;20413;-70
2021/01/23 00:07:03;;;;;;;33.85;3.88;;;;;;;;;;5045325;28;20068;-70
2021/01/23 00:09:29;;;;;;;25.80;3.53;;;;;;;;;;5044515;28;20041;-70
2021/01/23 00:11:56;;;;;;;39.33;3.72;;;;;;;;;;5046794;28;20124;-70
2021/01/23 00:14:22;;;;;;;25.60;4.20;;;;;;;;;;5046932;28;20041;-70
2021/01/23 00:16:48;;;;;;;34.33;4.47;;;;;;;;;;5042679;28;20083;-70
2021/01/23 00:19:14;;;;;;;32.65;4.57;;;;;;;;;;5047060;28;20091;-70
2021/01/23 00:21:41;;;;;;;30.73;3.95;;;;;;;;;;5038446;28;20551;-70
2021/01/23 00:24:07;;;;;;;42.58;4.20;;;;;;;;;;5049608;28;20390;-70
2021/01/23 00:26:33;;;;;;;30.48;4.30;;;;;;;;;;5052709;28;20045;-70
2021/01/23 00:28:59;;;;;;;39.20;4.25;;;;;;;;;;5051699;28;20101;-68
2021/01/23 00:31:26;;;;;;;39.17;5.13;;;;;;;;;;5049328;28;20399;-68
2021/01/23 00:33:52;;;;;;;31.02;3.88;;;;;;;;;;5050891;28;20052;-68
2021/01/23 00:36:19;;;;;;;21.17;3.50;;;;;;;;;;5041096;28;20048;-68
2021/01/23 00:38:45;;;;;;;29.52;4.43;;;;;;;;;;5052972;28;20045;-68
2021/01/23 00:41:11;;;;;;;28.88;3.80;;;;;;;;;;5053495;28;20037;-68
2021/01/23 00:43:38;;;;;;;32.78;4.55;;;;;;;;;;5045966;28;20129;-68
2021/01/23 00:46:04;;;;;;;31.23;4.07;;;;;;;;;;5049463;28;20404;-68
2021/01/23 00:48:31;;;;;;;22.73;3.28;;;;;;;;;;5049104;28;20120;-68
2021/01/23 00:50:57;;;;;;;26.77;3.45;;;;;;;;;;5043199;28;20072;-67
2021/01/23 00:53:23;;;;;;;33.22;4.15;;;;;;;;;;5042697;28;20096;-68
2021/01/23 00:55:49;;;;;;;30.60;4.25;;;;;;;;;;5048966;28;20037;-68
2021/01/23 00:58:15;;;;;;;30.80;4.25;;;;;;;;;;5056352;28;20043;-68
2021/01/23 01:00:42;;;;;;;34.00;3.70;;;;;;;;;;5047149;28;20544;-68
2021/01/23 01:03:08;;;;;;;24.70;3.22;;;;;;;;;;5051684;28;20091;-68
2021/01/23 01:05:40;;;;;;;35.13;4.93;;;;;;;;;;5045707;28;20073;-68
2021/01/23 01:08:07;;;;;;;31.35;3.95;;;;;;;;;;5046111;28;20103;-69
2021/01/23 01:10:33;;;;;;;33.40;4.20;;;;;;;;;;5042351;28;20112;-68
2021/01/23 01:13:04;;;;;;;35.72;4.88;;;;;;;;;;5040055;28;20045;-68
2021/01/23 01:15:30;;;;;;;25.25;3.92;;;;;;;;;;5049660;28;20485;-68
2021/01/23 01:17:57;;;;;;;32.38;4.28;;;;;;;;;;5048547;28;20037;-69
2021/01/23 01:20:23;;;;;;;34.00;4.28;;;;;;;;;;5051340;28;20075;-68
2021/01/23 01:22:49;;;;;;;37.00;4.90;;;;;;;;;;5048963;28;20045;-68
2021/01/23 01:25:16;;;;;;;40.15;5.28;;;;;;;;;;5044652;28;20055;-68
2021/01/23 01:27:42;;;;;;;34.20;5.20;;;;;;;;;;5049418;28;20053;-68
2021/01/23 01:30:08;;;;;;;36.40;5.35;;;;;;;;;;5046966;28;20049;-68
2021/01/23 01:32:35;;;;;;;26.97;4.07;;;;;;;;;;5049040;28;20044;-68
2021/01/23 01:35:01;;;;;;;33.00;4.28;;;;;;;;;;5052366;28;20045;-68
2021/01/23 01:37:27;;;;;;;37.80;5.15;;;;;;;;;;5052556;28;20033;-68
2021/01/23 01:39:53;;;;;;;26.80;4.38;;;;;;;;;;5047523;28;20049;-68
2021/01/23 01:42:20;;;;;;;37.65;4.60;;;;;;;;;;5051164;28;20049;-68
2021/01/23 01:44:46;;;;;;;33.10;4.20;;;;;;;;;;5044286;28;20045;-68
2021/01/23 01:47:12;;;;;;;48.15;5.95;;;;;;;;;;5047332;28;20038;-68
2021/01/23 01:49:40;;;;;;;33.33;4.78;;;;;;;;;;5051790;28;20118;-68
2021/01/23 01:52:06;;;;;;;27.05;4.07;;;;;;;;;;5043990;28;20472;-67
2021/01/23 01:54:33;;;;;;;35.10;4.65;;;;;;;;;;5050869;28;20041;-68
2021/01/23 01:56:59;;;;;;;42.25;5.18;;;;;;;;;;5054281;28;20037;-68
2021/01/23 01:59:26;;;;;;;41.93;4.40;;;;;;;;;;5044583;28;20071;-68
2021/01/23 02:01:57;;;;;;;38.80;5.13;;;;;;;;;;5042319;28;20470;-68
2021/01/23 02:04:31;;;;;;;37.85;5.30;;;;;;;;;;5049245;28;20042;-68
2021/01/23 02:07:00;;;;;;;35.38;4.38;;;;;;;;;;5050611;28;20051;-68
2021/01/23 02:09:46;;;;;;;40.80;5.18;;;;;;;;;;5039432;28;20075;-68
2021/01/23 02:12:12;;;;;;;45.40;4.97;;;;;;;;;;5051227;28;20045;-68
2021/01/23 02:14:40;;;;;;;42.17;5.40;;;;;;;;;;5051206;28;20095;-68
2021/01/23 02:17:11;;;;;;;38.80;4.90;;;;;;;;;;5051989;28;20048;-68
2021/01/23 02:19:37;;;;;;;36.28;5.32;;;;;;;;;;5041722;28;20037;-68
2021/01/23 02:22:22;;;;;;;38.03;6.75;;;;;;;;;;5039076;28;20050;-68
2021/01/23 02:24:49;;;;;;;37.58;4.90;;;;;;;;;;5048828;28;20033;-68
2021/01/23 02:27:15;;;;;;;;;;;;;;;;;;5044920;28;20489;-68
2021/01/23 02:29:47;;;;;;;41.92;4.70;;;;;;;;;;5047180;28;20020;-68
2021/01/23 02:32:13;;;;;;;48.70;5.63;;;;;;;;;;5050741;28;20103;-68
2021/01/23 02:34:41;;;;;;;39.50;4.97;;;;;;;;;;5046541;28;20369;-68
2021/01/23 02:37:08;;;;;;;41.63;7.47;;;;;;;;;;5049700;28;20120;-68
2021/01/23 02:39:34;;;;;;;29.33;3.78;;;;;;;;;;5034963;28;20574;-68
2021/01/23 02:42:01;;;;;;;43.75;6.18;;;;;;;;;;5045212;28;20033;-68
2021/01/23 02:44:27;;;;;;;40.17;5.38;;;;;;;;;;5050720;28;20041;-68
2021/01/23 02:46:54;;;;;;;33.58;5.60;;;;;;;;;;5047159;28;20053;-68
2021/01/23 02:49:22;;;;;;;29.35;4.00;;;;;;;;;;5045707;28;20041;-68
2021/01/23 02:51:48;;;;;;;;;;;;;;;;;;5051154;28;20041;-68
2021/01/23 02:54:19;;;;;;;33.97;4.32;;;;;;;;;;5043225;28;19925;-68
2021/01/23 02:56:46;;;;;;;37.40;4.45;;;;;;;;;;5048553;28;20041;-68
2021/01/23 02:59:13;;;;;;;27.40;4.40;;;;;;;;;;5040005;28;20584;-68
2021/01/23 03:01:41;;;;;;;35.10;3.78;;;;;;;;;;5041501;28;20029;-68
2021/01/23 03:04:08;;;;;;;29.23;4.10;;;;;;;;;;5047611;28;20546;-68
2021/01/23 03:06:36;;;;;;;38.35;3.97;;;;;;;;;;5046729;28;20090;-68
2021/01/23 03:09:15;;;;;;;34.38;4.60;;;;;;;;;;5047810;28;20049;-68
2021/01/23 03:11:41;;;;;;;29.13;4.30;;;;;;;;;;5039904;28;20049;-68
2021/01/23 03:14:07;;;;;;;34.38;4.80;;;;;;;;;;5047229;28;20596;-68
2021/01/23 03:16:33;;;;;;;30.20;4.45;;;;;;;;;;5044702;28;20599;-68
2021/01/23 03:19:00;;;;;;;45.10;5.72;;;;;;;;;;5043440;28;20056;-67
2021/01/23 03:21:26;;;;;;;26.90;3.20;;;;;;;;;;5042748;28;20050;-68
2021/01/23 03:23:52;;;;;;;32.50;4.07;;;;;;;;;;5040682;28;20124;-68
2021/01/23 03:26:19;;;;;;;36.08;3.78;;;;;;;;;;5049041;28;20049;-68
2021/01/23 03:28:45;;;;;;;30.23;3.25;;;;;;;;;;5045530;28;20049;-68
2021/01/23 03:31:11;;;;;;;34.25;4.80;;;;;;;;;;5040249;28;20471;-68
2021/01/23 03:33:39;;;;;;;26.23;3.28;;;;;;;;;;5039234;28;20041;-68
2021/01/23 03:36:05;;;;;;;31.23;3.17;;;;;;;;;;5047405;28;20045;-68
2021/01/23 03:38:31;;;;;;;32.55;4.72;;;;;;;;;;5047150;28;20048;-68
2021/01/23 03:40:57;;;;;;;30.13;4.50;;;;;;;;;;5049917;28;20386;-68
2021/01/23 03:43:23;;;;;;;45.20;4.10;;;;;;;;;;5042790;28;20060;-68
2021/01/23 03:45:50;;;;;;;38.00;4.68;;;;;;;;;;5049522;28;20396;-68
2021/01/23 03:48:16;;;;;;;35.92;3.40;;;;;;;;;;5044380;28;20049;-68
2021/01/23 03:50:42;;;;;;;45.08;5.70;;;;;;;;;;5046759;28;20451;-68
2021/01/23 03:53:08;;;;;;;34.85;4.55;;;;;;;;;;5047630;28;20060;-68
2021/01/23 03:55:34;;;;;;;34.58;4.85;;;;;;;;;;5047753;28;20503;-68
2021/01/23 03:58:00;;;;;;;31.58;4.55;;;;;;;;;;5052418;28;20049;-68
2021/01/23 04:00:26;;;;;;;33.72;5.60;;;;;;;;;;5040876;28;20099;-68
2021/01/23 04:02:53;;;;;;;28.77;4.13;;;;;;;;;;5048130;28;20459;-68
2021/01/23 04:05:19;;;;;;;35.75;4.25;;;;;;;;;;5048023;28;20045;-68
2021/01/23 04:07:45;;;;;;;47.33;5.22;;;;;;;;;;5038615;28;20056;-68
2021/01/23 04:10:12;;;;;;;45.20;4.07;;;;;;;;;;5042181;28;20392;-68
2021/01/23 04:12:39;;;;;;;31.77;4.60;;;;;;;;;;5049793;28;20045;-68
2021/01/23 04:15:06;;;;;;;37.15;4.45;;;;;;;;;;5049153;28;20099;-68
2021/01/23 04:17:32;;;;;;;49.03;5.47;;;;;;;;;;5042245;28;20045;-68
2021/01/23 04:19:58;;;;;;;29.55;4.43;;;;;;;;;;5034259;28;20045;-68
2021/01/23 04:22:25;;;;;;;31.55;5.10;;;;;;;;;;5046031;28;20053;-68
2021/01/23 04:24:51;;;;;;;48.70;4.93;;;;;;;;;;5050567;28;20520;-68
2021/01/23 04:27:17;;;;;;;46.08;6.35;;;;;;;;;;5044692;28;20084;-68
2021/01/23 04:29:44;;;;;;;47.08;5.47;;;;;;;;;;5045002;28;20045;-68
2021/01/23 04:32:10;;;;;;;45.90;4.93;;;;;;;;;;5045945;28;20546;-68
2021/01/23 04:34:37;;;;;;;43.08;6.88;;;;;;;;;;5046837;28;20049;-68
2021/01/23 04:37:03;;;;;;;44.70;4.78;;;;;;;;;;5045811;28;20037;-68
2021/01/23 04:39:29;;;;;;;43.95;5.05;;;;;;;;;;5038895;28;20041;-68
2021/01/23 04:41:55;;;;;;;41.97;5.28;;;;;;;;;;5043865;28;20107;-68
2021/01/23 04:44:21;;;;;;;45.50;5.82;;;;;;;;;;5049941;28;20045;-68
2021/01/23 04:46:48;;;;;;;34.50;5.18;;;;;;;;;;5046257;28;20056;-68
2021/01/23 04:49:14;;;;;;;39.42;5.15;;;;;;;;;;5048012;28;20041;-68
2021/01/23 04:51:40;;;;;;;39.72;5.57;;;;;;;;;;5043474;28;20103;-68
2021/01/23 04:54:06;;;;;;;36.70;4.43;;;;;;;;;;5043757;28;20049;-68
2021/01/23 04:56:32;;;;;;;36.05;5.03;;;;;;;;;;5043222;28;20056;-68
2021/01/23 04:58:59;;;;;;;37.40;4.43;;;;;;;;;;5052319;28;20072;-68
2021/01/23 05:01:25;;;;;;;38.78;5.38;;;;;;;;;;5036528;28;20098;-68
2021/01/23 05:03:55;;;;;;;33.87;5.20;;;;;;;;;;5051780;28;20056;-68
2021/01/23 05:06:21;;;;;;;31.08;4.30;;;;;;;;;;5052433;28;20131;-67
2021/01/23 05:08:47;;;;;;;46.95;6.57;;;;;;;;;;5053747;28;20049;-68
2021/01/23 05:11:13;;;;;;;39.85;4.35;;;;;;;;;;5043392;28;20053;-68
2021/01/23 05:13:42;;;;;;;43.10;5.18;;;;;;;;;;5041586;28;20057;-68
2021/01/23 05:16:23;;;;;;;47.40;4.70;;;;;;;;;;5045712;28;20037;-68
2021/01/23 05:19:01;;;;;;;33.55;4.47;;;;;;;;;;5049008;28;20057;-67
2021/01/23 05:21:29;;;;;;;44.55;5.20;;;;;;;;;;5049287;28;20033;-68
2021/01/23 05:24:02;;;;;;;37.53;5.10;;;;;;;;;;5056545;28;20045;-68
2021/01/23 05:26:28;;;;;;;45.63;6.40;;;;;;;;;;5039662;28;20045;-68
2021/01/23 05:29:04;;;;;;;43.72;6.13;;;;;;;;;;5042816;28;20053;-68
2021/01/23 05:31:31;;;;;;;44.95;5.72;;;;;;;;;;5042342;28;20049;-67
2021/01/23 05:33:57;;;;;;;49.75;4.90;;;;;;;;;;5048323;28;20551;-68
2021/01/23 05:36:23;;;;;;;43.75;5.15;;;;;;;;;;5044638;28;20439;-68
2021/01/23 05:38:50;;;;;;;44.17;5.07;;;;;;;;;;5050741;28;20163;-68
2021/01/23 05:41:17;;;;;;;37.33;4.50;;;;;;;;;;5046477;28;20052;-68
2021/01/23 05:43:50;;;;;;;45.78;5.85;;;;;;;;;;5047974;28;20042;-68
2021/01/23 05:46:31;;;;;;;41.13;5.75;;;;;;;;;;5043084;28;20097;-68
2021/01/23 05:48:58;;;;;;;54.38;6.38;;;;;;;;;;5045375;28;20051;-68
2021/01/23 05:51:24;;;;;;;45.55;5.32;;;;;;;;;;5045716;28;20504;-68
2021/01/23 05:53:51;;;;;;;49.25;5.70;;;;;;;;;;5049523;28;20052;-68
2021/01/23 05:56:17;;;;;;;35.90;4.77;;;;;;;;;;5040826;28;20054;-68
2021/01/23 05:58:44;;;;;;;47.70;6.05;;;;;;;;;;5046379;28;20292;-68
2021/01/23 06:01:17;;;;;;;44.53;5.70;;;;;;;;;;5037941;28;20064;-68
2021/01/23 06:03:44;;;;;;;47.50;5.47;;;;;;;;;;5046764;28;20076;-68
2021/01/23 06:06:11;;;;;;;44.42;5.32;;;;;;;;;;5049757;28;20037;-68
2021/01/23 06:08:44;;;;;;;49.50;6.10;;;;;;;;;;5044263;28;20044;-68
2021/01/23 06:11:19;;;;;;;54.40;5.15;;;;;;;;;;5040675;28;20041;-68
2021/01/23 06:13:49;;;;;;;44.22;4.60;;;;;;;;;;5049445;28;20037;-68
2021/01/23 06:16:37;;;;;;;43.00;5.45;;;;;;;;;;5040304;28;20535;-68
2021/01/23 06:19:06;;;;;;;32.40;4.15;;;;;;;;;;5046730;28;20041;-68
2021/01/23 06:21:52;;;;;;;42.92;5.05;;;;;;;;;;5051964;28;20056;-68
2021/01/23 06:24:41;;;;;;;36.25;4.65;;;;;;;;;;5047945;28;20051;-68
2021/01/23 06:27:07;;;;;;;43.70;5.40;;;;;;;;;;5045448;28;20053;-68
2021/01/23 06:29:33;;;;;;;53.53;7.43;;;;;;;;;;5048483;28;20106;-68
2021/01/23 06:32:22;;;;;;;46.53;4.70;;;;;;;;;;5045224;28;20048;-68
2021/01/23 06:34:57;;;;;;;35.05;5.38;;;;;;;;;;5043825;28;20136;-68
2021/01/23 06:37:23;;;;;;;43.00;5.57;;;;;;;;;;5035871;28;20037;-68
2021/01/23 06:39:55;;;;;;;37.72;5.75;;;;;;;;;;5040494;28;20512;-68
2021/01/23 06:42:22;;;;;;;44.17;5.60;;;;;;;;;;5047326;28;20041;-68
2021/01/23 06:44:48;;;;;;;40.40;5.32;;;;;;;;;;5040415;28;20041;-68
2021/01/23 06:47:14;;;;;;;51.42;4.90;;;;;;;;;;5049700;28;20040;-68
2021/01/23 06:49:41;;;;;;;53.10;5.40;;;;;;;;;;5047288;28;20094;-68
2021/01/23 06:52:07;;;;;;;45.73;5.33;;;;;;;;;;5042182;28;20045;-68
2021/01/23 06:54:34;;;;;;;46.60;5.18;;;;;;;;;;5046939;28;20051;-68
2021/01/23 06:57:01;;;;;;;45.58;5.32;;;;;;;;;;5051005;28;20033;-68
2021/01/23 06:59:37;;;;;;;44.15;5.63;;;;;;;;;;5036770;28;20095;-68
2021/01/23 07:02:04;;;;;;;50.08;5.85;;;;;;;;;;5039487;28;20037;-68
2021/01/23 07:04:30;;;;;;;41.38;5.95;;;;;;;;;;5040795;28;20041;-68
2021/01/23 07:06:57;;;;;;;54.00;5.50;;;;;;;;;;5043712;28;20045;-68
2021/01/23 07:09:42;;;;;;;44.97;5.30;;;;;;;;;;5036408;28;20045;-68
2021/01/23 07:12:09;;;;;;;47.38;6.13;;;;;;;;;;5048761;28;20386;-68
2021/01/23 07:14:35;;;;;;;64.70;5.72;;;;;;;;;;5037697;28;20041;-68
2021/01/23 07:17:02;;;;;;;48.40;5.35;;;;;;;;;;5047380;28;20037;-69
2021/01/23 07:19:28;;;;;;;41.67;5.53;;;;;;;;;;5041705;28;20116;-69
2021/01/23 07:21:55;;;;;;;75.40;6.20;;;;;;;;;;5044339;28;20067;-69
2021/01/23 07:24:22;;;;;;;43.55;5.15;;;;;;;;;;5038491;28;20654;-69
2021/01/23 07:26:48;;;;;;;52.53;6.27;;;;;;;;;;5048052;28;20370;-69
2021/01/23 07:29:14;;;;;;;62.20;6.60;;;;;;;;;;5044514;28;20083;-69
2021/01/23 07:31:40;;;;;;;56.80;6.38;;;;;;;;;;5043549;28;20096;-69
2021/01/23 07:34:11;;;;;;;48.65;5.20;;;;;;;;;;5045915;28;20045;-69
2021/01/23 07:36:40;;;;;;;44.95;4.63;;;;;;;;;;5046155;28;20037;-69
2021/01/23 07:39:10;;;;;;;56.53;5.68;;;;;;;;;;5044699;28;20103;-69
2021/01/23 07:41:38;;;;;;;56.50;5.47;;;;;;;;;;5047861;28;20037;-69
2021/01/23 07:44:05;;;;;;;64.78;6.00;;;;;;;;;;5045172;28;20049;-69
2021/01/23 07:46:35;;;;;;;69.25;6.45;;;;;;;;;;5042846;28;20472;-69
2021/01/23 07:49:03;;;;;;;58.72;6.45;;;;;;;;;;5047379;28;20094;-69
2021/01/23 07:51:30;;;;;;;62.92;5.78;;;;;;;;;;5045518;28;20051;-69
2021/01/23 07:54:06;;;;;;;64.57;5.60;;;;;;;;;;5046126;28;20091;-69
2021/01/23 07:56:33;;;;;;;53.88;5.25;;;;;;;;;;5047782;28;20075;-69
2021/01/23 07:58:59;;;;;;;61.90;6.40;;;;;;;;;;5052482;28;20555;-69
2021/01/23 08:01:25;;;;;;;63.85;6.20;;;;;;;;;;5048188;28;20045;-69
2021/01/23 08:03:53;;;;;;;65.00;8.35;;;;;;;;;;5049916;28;20140;-69
2021/01/23 08:06:20;;;;;;;64.53;6.38;;;;;;;;;;5043132;28;20049;-69
2021/01/23 08:08:47;;;;;;;68.43;6.78;;;;;;;;;;5045065;28;20547;-68
2021/01/23 08:11:33;;;;;;;58.47;6.13;;;;;;;;;;5041103;28;20560;-69
2021/01/23 08:14:06;;;;;;;50.95;6.45;;;;;;;;;;5049144;28;20056;-69
2021/01/23 08:16:32;;;;;;;53.15;6.50;;;;;;;;;;5044572;28;20037;-69
2021/01/23 08:19:05;;;;;;;62.10;6.47;;;;;;;;;;5048063;28;20065;-69
2021/01/23 08:21:32;;;;;;;51.97;6.68;;;;;;;;;;5042145;28;20049;-69
2021/01/23 08:23:58;;;;;;;77.93;7.13;;;;;;;;;;5048387;28;20037;-69
2021/01/23 08:26:39;;;;;;;69.18;6.72;;;;;;;;;;5038761;28;20049;-69
2021/01/23 08:29:06;;;;;;;54.17;6.70;;;;;;;;;;5039241;28;20423;-68
2021/01/23 08:31:32;;;;;;;54.10;6.00;;;;;;;;;;5047696;28;20098;-67
2021/01/23 08:33:58;;;;;;;37.35;5.93;;;;;;;;;;5045781;28;20127;-67
2021/01/23 08:36:28;;;;;;;58.75;5.93;;;;;;;;;;5047621;28;20042;-67
2021/01/23 08:39:01;;;;;;;52.35;5.95;;;;;;;;;;5045765;28;20448;-67
2021/01/23 08:41:28;;;;;;;50.95;6.75;;;;;;;;;;5040974;28;20033;-67
2021/01/23 08:43:54;;;;;;;60.45;7.55;;;;;;;;;;5045188;28;20068;-67
2021/01/23 08:46:21;;;;;;;58.58;7.15;;;;;;;;;;5049771;28;20045;-67
2021/01/23 08:48:48;;;;;;;46.97;5.97;;;;;;;;;;5037793;28;20413;-67
2021/01/23 08:51:17;;;;;;;57.72;6.75;;;;;;;;;;5042994;28;20051;-67
2021/01/23 08:53:43;;;;;;;56.30;7.25;;;;;;;;;;5047957;28;20121;-67
2021/01/23 08:56:11;;;;;;;51.97;5.82;;;;;;;;;;5051685;28;20049;-67
2021/01/23 08:58:37;;;;;;;56.78;6.80;;;;;;;;;;5049938;28;20033;-67
2021/01/23 09:01:03;;;;;;;51.63;5.90;;;;;;;;;;5046437;28;20044;-67
2021/01/23 09:03:30;;;;;;;45.85;6.70;;;;;;;;;;5041034;28;20123;-67
2021/01/23 09:05:56;;;;;;;63.85;7.57;;;;;;;;;;5044604;28;20095;-67
2021/01/23 09:08:22;;;;;;;43.35;5.85;;;;;;;;;;5050773;28;20098;-67
2021/01/23 09:10:48;;;;;;;49.85;7.18;;;;;;;;;;5045585;28;20068;-67
2021/01/23 09:13:14;;;;;;;47.88;6.90;;;;;;;;;;5043611;28;20059;-67
2021/01/23 09:15:40;;;;;;;58.92;6.45;;;;;;;;;;5043288;28;20087;-67
2021/01/23 09:18:07;;;;;;;46.33;6.03;;;;;;;;;;5047848;28;20044;-67
2021/01/23 09:20:34;;;;;;;39.35;5.22;;;;;;;;;;5041909;28;20124;-67
2021/01/23 09:23:00;;;;;;;51.80;5.05;;;;;;;;;;5046826;28;20069;-67
2021/01/23 09:25:26;;;;;;;49.25;6.13;;;;;;;;;;5041618;28;20442;-67
2021/01/23 09:27:52;;;;;;;55.00;7.03;;;;;;;;;;5050809;28;20063;-67
2021/01/23 09:30:18;;;;;;;53.80;5.55;;;;;;;;;;5045595;28;20090;-67
2021/01/23 09:32:44;;;;;;;43.78;5.13;;;;;;;;;;5049496;28;20503;-68
2021/01/23 09:35:11;;;;;;;44.58;4.60;;;;;;;;;;5048548;28;20072;-68
2021/01/23 09:37:38;;;;;;;50.10;5.45;;;;;;;;;;5044470;28;20038;-67
2021/01/23 09:40:05;;;;;;;44.85;4.80;;;;;;;;;;5042361;28;20116;-67
2021/01/23 09:42:32;;;;;;;;;;;;;;;;;;5044859;28;20502;-68
2021/01/23 09:44:58;;;;;;;40.70;5.47;;;;;;;;;;5043162;28;19921;-67
2021/01/23 09:47:24;;;;;;;41.67;5.15;;;;;;;;;;5048293;28;20118;-67
2021/01/23 09:49:50;;;;;;;43.88;5.82;;;;;;;;;;5046610;28;20048;-68
2021/01/23 09:52:17;;;;;;;39.47;5.50;;;;;;;;;;5043255;28;20496;-67
2021/01/23 09:54:43;;;;;;;46.90;4.88;;;;;;;;;;5042476;28;20715;-68
2021/01/23 09:57:09;;;;;;;35.50;5.78;;;;;;;;;;5047452;28;20068;-68
2021/01/23 09:59:37;;;;;;;48.60;5.45;;;;;;;;;;5043651;28;20052;-68
2021/01/23 10:02:03;;;;;;;36.25;4.72;;;;;;;;;;5039757;28;20036;-67
2021/01/23 10:04:30;;;;;;;35.15;4.70;;;;;;;;;;5045445;28;20049;-67
2021/01/23 10:06:56;;;;;;;55.25;5.60;;;;;;;;;;5040940;28;20497;-67
2021/01/23 10:09:22;;;;;;;46.17;4.63;;;;;;;;;;5044140;28;20048;-67
2021/01/23 10:11:49;;;;;;;40.15;4.65;;;;;;;;;;5049923;28;20115;-67
2021/01/23 10:14:15;;;;;;;37.57;5.83;;;;;;;;;;5048337;28;20064;-67
2021/01/23 10:16:41;;;;;;;39.60;5.03;;;;;;;;;;5045357;28;20295;-67
2021/01/23 10:19:08;;;;;;;38.75;5.03;;;;;;;;;;5041708;28;20076;-67
2021/01/23 10:21:34;;;;;;;36.33;5.45;;;;;;;;;;5051515;28;20045;-67
2021/01/23 10:24:00;;;;;;;42.90;4.82;;;;;;;;;;5044962;28;20497;-67
2021/01/23 10:26:26;;;;;;;39.25;5.53;;;;;;;;;;5050878;28;20040;-67
2021/01/23 10:28:53;;;;;;;36.22;4.55;;;;;;;;;;5046833;28;20052;-67
2021/01/23 10:31:19;;;;;;;30.13;5.30;;;;;;;;;;5045996;28;20159;-67
2021/01/23 10:33:45;;;;;;;48.42;5.60;;;;;;;;;;5041951;28;20136;-67
2021/01/23 10:36:11;;;;;;;32.00;5.05;;;;;;;;;;5043736;28;20045;-67
2021/01/23 10:38:37;;;;;;;40.75;4.78;;;;;;;;;;5040160;28;20116;-68
2021/01/23 10:41:04;;;;;;;34.33;5.32;;;;;;;;;;5045683;28;20044;-67
2021/01/23 10:43:31;;;;;;;37.58;5.03;;;;;;;;;;5040465;28;20117;-67
2021/01/23 10:45:57;;;;;;;35.20;5.50;;;;;;;;;;5048877;28;20048;-68
2021/01/23 10:48:23;;;;;;;37.92;5.20;;;;;;;;;;5041894;28;20041;-67
2021/01/23 10:50:50;;;;;;;29.70;4.78;;;;;;;;;;5044506;28;20041;-67
2021/01/23 10:53:17;;;;;;;38.58;5.32;;;;;;;;;;5040218;28;20045;-68
2021/01/23 10:55:43;;;;;;;32.65;4.00;;;;;;;;;;5050113;28;20460;-67
2021/01/23 10:58:09;;;;;;;40.28;5.63;;;;;;;;;;5050036;28;20067;-67
2021/01/23 11:00:35;;;;;;;34.15;4.47;;;;;;;;;;5050236;28;20053;-67
2021/01/23 11:03:02;;;;;;;40.00;4.97;;;;;;;;;;5048695;28;20083;-67
2021/01/23 11:05:28;;;;;;;47.93;5.13;;;;;;;;;;5045087;28;20128;-67
2021/01/23 11:07:56;;;;;;;38.60;5.43;;;;;;;;;;5042106;28;20299;-67
2021/01/23 11:10:22;;;;;;;49.75;4.78;;;;;;;;;;5043739;28;20497;-67
2021/01/23 11:12:48;;;;;;;34.90;5.53;;;;;;;;;;5042126;28;20056;-67
2021/01/23 11:15:15;;;;;;;35.17;3.53;;;;;;;;;;5049528;28;20131;-67
2021/01/23 11:17:42;;;;;;;31.90;3.53;;;;;;;;;;5046983;28;20037;-68
2021/01/23 11:20:08;;;;;;;39.72;5.00;;;;;;;;;;5046143;28;20447;-67
2021/01/23 11:22:35;;;;;;;37.42;5.80;;;;;;;;;;5042420;28;20048;-67
2021/01/23 11:25:01;;;;;;;38.80;5.38;;;;;;;;;;5049231;28;20099;-67
2021/01/23 11:27:28;;;;;;;34.70;4.50;;;;;;;;;;5040667;28;20060;-67
2021/01/23 11:29:54;;;;;;;36.70;4.72;;;;;;;;;;5045527;28;20076;-67
2021/01/23 11:32:21;;;;;;;36.10;5.43;;;;;;;;;;5039752;28;20136;-67
2021/01/23 11:34:47;;;;;;;40.15;5.05;;;;;;;;;;5045214;28;20111;-67
2021/01/23 11:37:13;;;;;;;42.80;5.72;;;;;;;;;;5046732;28;20033;-67
2021/01/23 11:39:40;;;;;;;32.90;5.20;;;;;;;;;;5045228;28;20761;-67
2021/01/23 11:42:06;;;;;;;44.58;5.20;;;;;;;;;;5042205;28;20444;-67
2021/01/23 11:44:32;;;;;;;38.47;4.88;;;;;;;;;;5050441;28;20049;-67
2021/01/23 11:46:58;;;;;;;29.58;5.20;;;;;;;;;;5043995;28;20044;-67
2021/01/23 11:49:24;;;;;;;37.33;4.80;;;;;;;;;;5049725;28;20537;-68
2021/01/23 11:51:51;;;;;;;44.00;6.25;;;;;;;;;;5050662;28;20045;-67
2021/01/23 11:54:17;;;;;;;35.15;5.10;;;;;;;;;;5046919;28;20052;-67
2021/01/23 11:56:44;;;;;;;43.92;5.43;;;;;;;;;;5042894;28;20485;-67
2021/01/23 11:59:10;;;;;;;28.10;5.07;;;;;;;;;;5044621;28;20107;-67
2021/01/23 12:01:36;;;;;;;31.98;4.88;;;;;;;;;;5047068;28;20095;-67
2021/01/23 12:04:03;;;;;;;35.28;5.03;;;;;;;;;;5051981;28;20404;-67
2021/01/23 12:06:30;;;;;;;47.25;5.75;;;;;;;;;;5037287;28;20116;-67
2021/01/23 12:08:56;;;;;;;26.67;4.85;;;;;;;;;;5050309;28;20052;-67
2021/01/23 12:11:22;;;;;;;36.75;4.60;;;;;;;;;;5047017;28;20053;-67
2021/01/23 12:13:49;;;;;;;30.00;5.03;;;;;;;;;;5047775;28;20459;-67
2021/01/23 12:16:15;;;;;;;40.13;4.57;;;;;;;;;;5047001;28;20049;-67
2021/01/23 12:18:41;;;;;;;32.22;4.70;;;;;;;;;;5050960;28;20037;-67
2021/01/23 12:21:07;;;;;;;32.05;5.43;;;;;;;;;;5042229;28;20527;-66
2021/01/23 12:23:33;;;;;;;48.15;6.28;;;;;;;;;;5041829;28;20060;-67
2021/01/23 12:25:59;;;;;;;37.28;4.97;;;;;;;;;;5044812;28;20049;-67
2021/01/23 12:28:26;;;;;;;43.90;4.88;;;;;;;;;;5045729;28;20048;-67
2021/01/23 12:30:52;;;;;;;48.80;6.25;;;;;;;;;;5042771;28;20566;-67
2021/01/23 12:33:18;;;;;;;43.63;5.20;;;;;;;;;;5044384;28;20033;-68
2021/01/23 12:35:44;;;;;;;39.00;5.70;;;;;;;;;;5046192;28;20443;-67
2021/01/23 12:38:10;;;;;;;35.00;4.75;;;;;;;;;;5047901;28;20048;-67
2021/01/23 12:40:38;;;;;;;40.33;5.30;;;;;;;;;;5048085;28;20489;-67
2021/01/23 12:43:04;;;;;;;32.33;4.20;;;;;;;;;;5044941;28;20167;-67
2021/01/23 12:45:30;;;;;;;35.50;4.40;;;;;;;;;;5045650;28;20061;-67
2021/01/23 12:47:56;;;;;;;34.38;4.95;;;;;;;;;;5038341;28;20069;-67
2021/01/23 12:50:23;;;;;;;35.72;4.72;;;;;;;;;;5045869;28;20554;-67
2021/01/23 12:52:49;;;;;;;44.92;4.55;;;;;;;;;;5051850;28;20052;-67
2021/01/23 12:55:15;;;;;;;37.22;5.25;;;;;;;;;;5050427;28;20048;-67
2021/01/23 12:57:41;;;;;;;38.90;5.18;;;;;;;;;;5055222;28;20543;-67
2021/01/23 13:00:08;;;;;;;28.98;4.85;;;;;;;;;;5052577;28;20056;-67
2021/01/23 13:02:34;;;;;;;36.50;4.97;;;;;;;;;;5052254;28;20052;-67
2021/01/23 13:05:01;;;;;;;27.38;4.28;;;;;;;;;;5047712;28;20037;-67
2021/01/23 13:07:30;;;;;;;33.47;5.05;;;;;;;;;;5042324;28;20558;-67
2021/01/23 13:09:57;;;;;;;39.08;5.28;;;;;;;;;;5048544;28;20068;-67
2021/01/23 13:12:23;;;;;;;48.30;4.95;;;;;;;;;;5045993;28;20037;-67
2021/01/23 13:14:49;;;;;;;29.67;5.38;;;;;;;;;;5048080;28;20408;-67
2021/01/23 13:17:15;;;;;;;44.72;5.72;;;;;;;;;;5044159;28;20091;-67
2021/01/23 13:19:42;;;;;;;30.13;5.03;;;;;;;;;;5051825;28;20052;-67
2021/01/23 13:22:08;;;;;;;42.47;4.38;;;;;;;;;;5049848;28;20153;-67
2021/01/23 13:24:34;;;;;;;30.27;4.45;;;;;;;;;;5044573;28;20041;-67
2021/01/23 13:27:08;;;;;;;29.75;5.18;;;;;;;;;;5042708;28;20137;-66
2021/01/23 13:29:53;;;;;;;32.30;4.95;;;;;;;;;;5041413;28;20120;-67
2021/01/23 13:32:43;;;;;;;29.92;4.65;;;;;;;;;;5042579;28;20136;-68
2021/01/23 13:35:28;;;;;;;32.40;4.13;;;;;;;;;;5049625;28;20044;-68
2021/01/23 13:38:08;;;;;;;30.58;5.75;;;;;;;;;;5032166;28;20051;-67
2021/01/23 13:40:53;;;;;;;41.67;5.22;;;;;;;;;;5045091;28;20095;-67
2021/01/23 13:43:34;;;;;;;43.08;4.75;;;;;;;;;;5040821;28;20045;-67
2021/01/23 13:46:19;;;;;;;32.85;4.45;;;;;;;;;;5040572;28;20396;-67
2021/01/23 13:49:00;;;;;;;34.90;5.00;;;;;;;;;;5038688;28;20068;-67
2021/01/23 13:51:45;;;;;;;36.38;3.97;;;;;;;;;;5047637;28;20041;-67
2021/01/23 13:54:25;;;;;;;27.13;4.43;;;;;;;;;;5048056;28;20045;-67
2021/01/23 13:57:10;;;;;;;42.40;4.90;;;;;;;;;;5048173;28;20052;-67
2021/01/23 13:59:43;;;;;;;34.80;4.90;;;;;;;;;;5047080;28;20084;-67
2021/01/23 14:02:10;;;;;;;33.17;4.30;;;;;;;;;;5050076;28;20120;-67
2021/01/23 14:04:37;;;;;;;36.55;4.22;;;;;;;;;;5051032;28;20052;-67
2021/01/23 14:07:04;;;;;;;35.35;4.65;;;;;;;;;;5044354;28;20090;-67
2021/01/23 14:09:30;;;;;;;36.45;4.70;;;;;;;;;;5048229;28;20119;-68
2021/01/23 14:11:58;;;;;;;40.75;5.28;;;;;;;;;;5044305;28;20041;-67
2021/01/23 14:14:24;;;;;;;33.53;4.88;;;;;;;;;;5046108;28;20053;-67
2021/01/23 14:16:50;;;;;;;30.98;4.78;;;;;;;;;;5051916;28;20044;-67
2021/01/23 14:19:17;;;;;;;27.33;4.30;;;;;;;;;;5051179;28;20079;-67
2021/01/23 14:21:43;;;;;;;29.15;4.80;;;;;;;;;;5048990;28;20040;-68
2021/01/23 14:24:09;;;;;;;33.50;4.75;;;;;;;;;;5052831;28;20048;-67
2021/01/23 14:26:35;;;;;;;25.27;4.15;;;;;;;;;;5050055;28;20516;-67
2021/01/23 14:29:01;;;;;;;36.15;4.13;;;;;;;;;;5049084;28;20052;-67
2021/01/23 14:31:27;;;;;;;36.13;4.30;;;;;;;;;;5043402;28;20558;-67
2021/01/23 14:33:53;;;;;;;29.25;3.90;;;;;;;;;;5039574;28;20109;-67
2021/01/23 14:36:20;;;;;;;39.30;5.05;;;;;;;;;;5045934;28;20723;-66